createdAt,value
2022-12-24T00:00:28.013Z,3.20
2022-12-24T00:02:59.781Z,2.70
2022-12-24T00:05:31.474Z,3.01
2022-12-24T00:08:03.087Z,2.67
2022-12-24T00:10:34.648Z,2.91
2022-12-24T00:13:06.263Z,2.83
2022-12-24T00:15:37.854Z,2.70
2022-12-24T00:18:09.439Z,2.65
2022-12-24T00:20:41.230Z,2.60
2022-12-24T00:23:12.905Z,2.85
2022-12-24T00:25:44.962Z,2.82
2022-12-24T00:28:22.661Z,2.83
2022-12-24T00:30:54.441Z,2.64
2022-12-24T00:33:26.052Z,2.60
2022-12-24T00:35:57.573Z,2.57
2022-12-24T00:38:29.151Z,2.44
2022-12-24T00:41:06.363Z,2.17
2022-12-24T00:43:38.027Z,2.01
2022-12-24T00:46:09.685Z,2.08
2022-12-24T00:48:41.304Z,1.78
2022-12-24T00:51:13.057Z,1.64
2022-12-24T00:53:44.731Z,1.53
2022-12-24T00:56:16.979Z,1.80
2022-12-24T00:58:48.693Z,1.61
2022-12-24T01:01:21.179Z,1.80
2022-12-24T01:03:53.360Z,1.77
2022-12-24T01:06:24.964Z,1.68
2022-12-24T01:08:56.706Z,1.66
2022-12-24T01:11:28.280Z,1.58
2022-12-24T01:13:59.906Z,1.56
2022-12-24T01:16:31.699Z,1.67
2022-12-24T01:19:04.144Z,1.61
2022-12-24T01:21:35.677Z,1.70
2022-12-24T01:24:07.347Z,1.76
2022-12-24T01:26:38.954Z,1.96
2022-12-24T01:29:10.541Z,1.81
2022-12-24T01:31:42.140Z,1.77
2022-12-24T01:34:13.751Z,1.68
2022-12-24T01:36:45.343Z,1.79
2022-12-24T01:39:17.302Z,1.75
2022-12-24T01:41:49.040Z,1.78
2022-12-24T01:44:20.557Z,1.76
2022-12-24T01:47:03.727Z,1.97
2022-12-24T01:49:39.364Z,1.86
2022-12-24T01:52:19.417Z,1.89
2022-12-24T01:54:58.705Z,1.88
2022-12-24T01:57:46.173Z,1.85
2022-12-24T02:00:18.308Z,1.86
2022-12-24T02:02:53.420Z,1.91
2022-12-24T02:05:32.267Z,1.67
2022-12-24T02:08:05.774Z,1.88
2022-12-24T02:10:37.640Z,1.83
2022-12-24T02:13:10.147Z,1.89
2022-12-24T02:15:54.688Z,1.83
2022-12-24T02:18:38.685Z,1.71
2022-12-24T02:21:19.410Z,2.06
2022-12-24T02:24:05.990Z,1.93
2022-12-24T02:27:17.353Z,1.81
2022-12-24T02:29:48.847Z,1.93
2022-12-24T02:32:47.533Z,1.80
2022-12-24T02:35:25.572Z,1.97
2022-12-24T02:38:17.805Z,1.98
2022-12-24T02:41:02.881Z,1.67
2022-12-24T02:43:40.475Z,1.86
2022-12-24T02:46:18.892Z,1.79
2022-12-24T02:48:51.143Z,1.88
2022-12-24T02:51:24.825Z,1.99
2022-12-24T02:53:57.335Z,2.04
2022-12-24T02:57:10.211Z,1.91
2022-12-24T03:00:08.512Z,1.72
2022-12-24T03:03:01.839Z,1.83
2022-12-24T03:05:54.778Z,1.75
2022-12-24T03:08:54.884Z,1.92
2022-12-24T03:11:26.724Z,1.82
2022-12-24T03:14:00.073Z,1.71
2022-12-24T03:16:32.190Z,1.64
2022-12-24T03:19:04.114Z,1.75
2022-12-24T03:21:40.079Z,1.61
2022-12-24T03:24:12.260Z,1.47
2022-12-24T03:26:46.195Z,1.45
2022-12-24T03:29:18.175Z,1.50
2022-12-24T03:31:53.217Z,1.28
2022-12-24T03:34:24.959Z,1.51
2022-12-24T03:36:56.856Z,1.39
2022-12-24T03:39:28.487Z,1.37
2022-12-24T03:42:00.126Z,1.22
2022-12-24T03:44:31.648Z,1.24
2022-12-24T03:47:03.238Z,1.41
2022-12-24T03:49:34.847Z,1.41
2022-12-24T03:52:06.438Z,1.57
2022-12-24T03:54:38.104Z,1.47
2022-12-24T03:57:09.805Z,1.47
2022-12-24T03:59:41.410Z,1.61
2022-12-24T04:02:13.089Z,1.66
2022-12-24T04:04:44.794Z,1.69
2022-12-24T04:07:16.339Z,1.60
2022-12-24T04:09:47.951Z,1.48
2022-12-24T04:12:19.566Z,1.37
2022-12-24T04:14:51.342Z,1.56
2022-12-24T04:17:23.171Z,1.38
2022-12-24T04:19:54.794Z,1.58
2022-12-24T04:22:26.564Z,1.51
2022-12-24T04:24:58.136Z,1.62
2022-12-24T04:27:30.719Z,1.81
2022-12-24T04:30:02.806Z,1.50
2022-12-24T04:32:34.341Z,1.61
2022-12-24T04:35:06.247Z,1.52
2022-12-24T04:37:37.831Z,1.68
2022-12-24T04:40:09.797Z,1.50
2022-12-24T04:42:41.387Z,1.64
2022-12-24T04:45:13.057Z,1.54
2022-12-24T04:47:44.887Z,1.50
2022-12-24T04:50:16.526Z,1.61
2022-12-24T04:52:48.083Z,1.69
2022-12-24T04:55:19.688Z,1.79
2022-12-24T04:57:53.052Z,1.71
2022-12-24T05:00:24.966Z,1.71
2022-12-24T05:02:56.784Z,1.70
2022-12-24T05:05:28.398Z,1.56
2022-12-24T05:08:00.005Z,1.62
2022-12-24T05:10:31.802Z,1.41
2022-12-24T05:13:03.591Z,1.46
2022-12-24T05:15:35.221Z,1.40
2022-12-24T05:18:06.819Z,1.50
2022-12-24T05:20:38.378Z,1.58
2022-12-24T05:23:16.989Z,1.72
2022-12-24T05:25:48.641Z,1.75
2022-12-24T05:28:20.806Z,1.66
2022-12-24T05:30:52.468Z,1.77
2022-12-24T05:33:24.035Z,1.76
2022-12-24T05:35:55.609Z,2.26
2022-12-24T05:38:27.184Z,1.80
2022-12-24T05:40:58.771Z,1.56
2022-12-24T05:43:30.555Z,1.57
2022-12-24T05:46:07.955Z,1.52
2022-12-24T05:48:39.774Z,1.34
2022-12-24T05:51:13.712Z,1.47
2022-12-24T05:53:46.544Z,1.52
2022-12-24T05:56:21.112Z,1.18
2022-12-24T05:58:53.991Z,1.41
2022-12-24T06:01:26.120Z,1.38
2022-12-24T06:03:57.940Z,1.21
2022-12-24T06:06:29.622Z,1.20
2022-12-24T06:09:01.279Z,1.21
2022-12-24T06:11:33.509Z,1.20
2022-12-24T06:14:05.094Z,1.10
2022-12-24T06:16:36.765Z,1.07
2022-12-24T06:19:08.294Z,1.15
2022-12-24T06:21:39.865Z,1.59
2022-12-24T06:24:11.466Z,1.10
2022-12-24T06:26:43.009Z,1.22
2022-12-24T06:29:14.584Z,1.18
2022-12-24T06:31:46.190Z,1.09
2022-12-24T06:34:17.807Z,1.06
2022-12-24T06:36:49.489Z,1.14
2022-12-24T06:39:21.074Z,1.08
2022-12-24T06:41:52.669Z,1.06
2022-12-24T06:44:24.420Z,1.31
2022-12-24T06:46:56.094Z,1.25
2022-12-24T06:49:27.768Z,1.28
2022-12-24T06:51:59.311Z,1.36
2022-12-24T06:54:30.899Z,1.45
2022-12-24T06:57:02.490Z,1.32
2022-12-24T06:59:34.079Z,1.32
2022-12-24T07:02:05.757Z,1.32
2022-12-24T07:04:37.458Z,1.27
2022-12-24T07:07:09.082Z,1.01
2022-12-24T07:09:40.624Z,1.24
2022-12-24T07:12:12.169Z,1.19
2022-12-24T07:14:43.746Z,1.21
2022-12-24T07:17:15.440Z,1.18
2022-12-24T07:19:47.254Z,1.31
2022-12-24T07:22:18.893Z,1.38
2022-12-24T07:24:50.445Z,1.28
2022-12-24T07:27:22.081Z,1.28
2022-12-24T07:29:53.713Z,1.19
2022-12-24T07:32:25.371Z,1.24
2022-12-24T07:34:56.941Z,1.30
2022-12-24T07:37:28.793Z,1.36
2022-12-24T07:40:00.409Z,1.18
2022-12-24T07:42:32.052Z,1.15
2022-12-24T07:45:03.859Z,1.05
2022-12-24T07:47:35.585Z,1.08
2022-12-24T07:50:07.689Z,1.05
2022-12-24T07:52:39.316Z,1.17
2022-12-24T07:55:10.875Z,1.02
2022-12-24T07:57:42.834Z,1.07
2022-12-24T08:00:14.696Z,1.14
2022-12-24T08:02:46.347Z,1.10
2022-12-24T08:05:17.984Z,1.02
2022-12-24T08:07:49.583Z,0.96
2022-12-24T08:10:21.354Z,1.10
2022-12-24T08:12:52.959Z,1.09
2022-12-24T08:15:24.578Z,1.11
2022-12-24T08:17:56.611Z,1.25
2022-12-24T08:20:28.345Z,1.19
2022-12-24T08:22:59.914Z,1.08
2022-12-24T08:25:31.503Z,1.30
2022-12-24T08:28:04.066Z,1.25
2022-12-24T08:30:36.123Z,1.16
2022-12-24T08:33:07.843Z,2.16
2022-12-24T08:35:39.642Z,1.34
2022-12-24T08:38:11.214Z,1.08
2022-12-24T08:40:44.136Z,1.14
2022-12-24T08:43:17.383Z,1.05
2022-12-24T08:45:49.147Z,1.05
2022-12-24T08:48:20.840Z,1.12
2022-12-24T08:50:52.443Z,0.94
2022-12-24T08:53:24.131Z,0.97
2022-12-24T08:56:02.037Z,1.00
2022-12-24T08:58:33.873Z,0.95
2022-12-24T09:01:17.421Z,0.98
2022-12-24T09:03:49.181Z,0.94
2022-12-24T09:06:20.835Z,0.86
2022-12-24T09:08:52.452Z,0.89
2022-12-24T09:11:24.376Z,1.11
2022-12-24T09:13:56.048Z,1.12
2022-12-24T09:16:28.041Z,1.04
2022-12-24T09:18:59.678Z,1.00
2022-12-24T09:21:31.286Z,1.02
2022-12-24T09:24:04.444Z,1.05
2022-12-24T09:26:35.985Z,1.26
2022-12-24T09:29:08.063Z,1.13
2022-12-24T09:31:39.644Z,1.15
2022-12-24T09:34:11.291Z,1.33
2022-12-24T09:36:42.870Z,1.02
2022-12-24T09:39:14.980Z,0.98
2022-12-24T09:42:20.688Z,1.01
2022-12-24T09:45:07.636Z,1.09
2022-12-24T09:47:41.995Z,0.93
2022-12-24T09:50:31.785Z,1.02
2022-12-24T09:53:17.627Z,1.18
2022-12-24T09:55:55.530Z,1.16
2022-12-24T09:58:37.343Z,1.24
2022-12-24T10:01:14.153Z,0.94
2022-12-24T10:03:47.442Z,0.85
2022-12-24T10:06:29.020Z,0.89
2022-12-24T10:09:23.036Z,0.77
2022-12-24T10:12:00.492Z,0.69
2022-12-24T10:15:16.395Z,0.75
2022-12-24T10:18:06.408Z,0.77
2022-12-24T10:20:56.277Z,0.81
2022-12-24T10:23:38.396Z,0.78
2022-12-24T10:26:26.427Z,0.79
2022-12-24T10:29:06.245Z,0.98
2022-12-24T10:31:52.908Z,1.06
2022-12-24T10:34:31.461Z,1.13
2022-12-24T10:37:03.182Z,1.37
2022-12-24T10:39:34.803Z,1.69
2022-12-24T10:42:07.679Z,1.42
2022-12-24T10:44:39.311Z,1.30
2022-12-24T10:47:13.411Z,1.41
2022-12-24T10:50:00.273Z,1.54
2022-12-24T10:52:41.684Z,1.64
2022-12-24T10:55:16.209Z,1.74
2022-12-24T10:58:02.217Z,1.06
2022-12-24T11:00:36.834Z,1.43
2022-12-24T11:03:32.561Z,1.77
2022-12-24T11:06:07.818Z,2.98
2022-12-24T11:08:44.860Z,3.26
2022-12-24T11:11:20.658Z,1.74
2022-12-24T11:13:55.237Z,2.49
2022-12-24T11:16:33.939Z,3.42
2022-12-24T11:19:16.981Z,3.36
2022-12-24T11:21:48.815Z,2.13
2022-12-24T11:24:30.777Z,1.53
2022-12-24T11:27:32.524Z,1.79
2022-12-24T11:30:13.356Z,1.21
2022-12-24T11:32:48.464Z,1.16
2022-12-24T11:35:24.587Z,1.25
2022-12-24T11:38:02.093Z,1.36
2022-12-24T11:40:37.633Z,1.41
2022-12-24T11:43:21.819Z,1.41
2022-12-24T11:45:57.781Z,1.39
2022-12-24T11:48:32.823Z,1.28
2022-12-24T11:51:07.487Z,1.19
2022-12-24T11:53:53.672Z,1.24
2022-12-24T11:56:38.876Z,1.30
2022-12-24T11:59:25.191Z,0.96
2022-12-24T12:02:21.567Z,1.04
2022-12-24T12:05:00.235Z,0.94
2022-12-24T12:07:37.016Z,1.13
2022-12-24T12:10:20.684Z,1.01
2022-12-24T12:13:03.785Z,1.20
2022-12-24T12:15:53.888Z,1.43
2022-12-24T12:18:35.254Z,1.55
2022-12-24T12:21:16.940Z,1.80
2022-12-24T12:24:12.487Z,1.80
2022-12-24T12:26:47.253Z,1.71
2022-12-24T12:29:32.036Z,1.54
2022-12-24T12:32:25.366Z,1.43
2022-12-24T12:35:02.778Z,1.24
2022-12-24T12:37:41.448Z,1.30
2022-12-24T12:40:16.716Z,1.25
2022-12-24T12:43:10.800Z,1.33
2022-12-24T12:46:02.840Z,1.53
2022-12-24T12:48:49.573Z,1.34
2022-12-24T12:51:28.929Z,1.39
2022-12-24T12:54:30.200Z,1.53
2022-12-24T12:57:13.077Z,1.59
2022-12-24T12:59:57.964Z,1.30
2022-12-24T13:03:00.242Z,1.37
2022-12-24T13:05:56.221Z,1.28
2022-12-24T13:08:59.349Z,1.76
2022-12-24T13:11:30.881Z,1.63
2022-12-24T13:14:32.545Z,1.46
2022-12-24T13:17:46.112Z,1.44
2022-12-24T13:20:31.139Z,1.47
2022-12-24T13:23:13.733Z,1.75
2022-12-24T13:25:49.378Z,1.50
2022-12-24T13:28:23.717Z,1.66
2022-12-24T13:31:01.142Z,1.35
2022-12-24T13:33:38.755Z,1.32
2022-12-24T13:36:15.775Z,1.42
2022-12-24T13:38:55.339Z,1.38
2022-12-24T13:41:38.712Z,1.45
2022-12-24T13:44:13.693Z,1.42
2022-12-24T13:47:00.199Z,1.63
2022-12-24T13:49:43.461Z,1.49
2022-12-24T13:52:30.458Z,1.46
2022-12-24T13:55:14.867Z,1.44
2022-12-24T13:57:55.735Z,1.19
2022-12-24T14:00:33.055Z,1.22
2022-12-24T14:03:19.310Z,1.11
2022-12-24T14:05:56.626Z,1.29
2022-12-24T14:08:34.677Z,2.27
2022-12-24T14:11:15.083Z,3.15
2022-12-24T14:13:46.571Z,2.98
2022-12-24T14:16:25.855Z,2.24
2022-12-24T14:19:14.922Z,2.19
2022-12-24T14:22:03.883Z,1.67
2022-12-24T14:24:41.808Z,2.45
2022-12-24T14:27:28.307Z,3.31
2022-12-24T14:30:06.748Z,2.88
2022-12-24T14:32:40.950Z,2.67
2022-12-24T14:35:20.385Z,3.14
2022-12-24T14:38:00.048Z,2.55
2022-12-24T14:40:38.662Z,2.04
2022-12-24T14:43:27.488Z,2.15
2022-12-24T14:46:24.598Z,2.00
2022-12-24T14:49:32.388Z,1.87
2022-12-24T14:53:03.488Z,1.76
2022-12-24T14:55:39.712Z,1.90
2022-12-24T14:58:27.724Z,1.74
2022-12-24T15:01:02.917Z,1.97
2022-12-24T15:03:34.613Z,1.68
2022-12-24T15:06:10.829Z,1.88
2022-12-24T15:08:49.554Z,1.81
2022-12-24T15:11:23.460Z,2.00
2022-12-24T15:14:00.404Z,1.79
2022-12-24T15:16:35.560Z,2.17
2022-12-24T15:19:35.108Z,2.18
2022-12-24T15:22:23.778Z,2.36
2022-12-24T15:24:55.473Z,2.37
2022-12-24T15:27:33.379Z,2.30
2022-12-24T15:30:18.673Z,2.27
2022-12-24T15:32:53.647Z,2.34
2022-12-24T15:35:54.662Z,2.13
2022-12-24T15:38:37.597Z,2.06
2022-12-24T15:41:30.361Z,2.10
2022-12-24T15:44:03.445Z,1.86
2022-12-24T15:46:35.148Z,1.96
2022-12-24T15:49:17.321Z,2.00
2022-12-24T15:51:49.019Z,1.79
2022-12-24T15:54:22.755Z,2.07
2022-12-24T15:56:54.409Z,2.35
2022-12-24T15:59:30.203Z,2.03
2022-12-24T16:02:20.880Z,2.32
2022-12-24T16:04:52.692Z,2.45
2022-12-24T16:07:25.483Z,2.65
2022-12-24T16:09:57.066Z,2.61
2022-12-24T16:12:29.975Z,2.91
2022-12-24T16:15:02.173Z,2.72
2022-12-24T16:17:36.148Z,3.09
2022-12-24T16:20:20.665Z,2.76
2022-12-24T16:22:52.437Z,2.90
2022-12-24T16:25:27.077Z,3.31
2022-12-24T16:28:00.797Z,3.19
2022-12-24T16:30:32.999Z,3.19
2022-12-24T16:33:04.615Z,3.19
2022-12-24T16:35:36.185Z,3.43
2022-12-24T16:38:09.011Z,3.67
2022-12-24T16:40:41.476Z,3.65
2022-12-24T16:43:13.502Z,4.14
2022-12-24T16:45:47.125Z,3.73
2022-12-24T16:48:24.469Z,3.96
2022-12-24T16:50:56.186Z,4.78
2022-12-24T16:53:28.439Z,5.42
2022-12-24T16:56:00.024Z,6.68
2022-12-24T16:58:31.702Z,7.40
2022-12-24T17:01:08.113Z,6.91
2022-12-24T17:03:40.339Z,5.73
2022-12-24T17:06:12.041Z,5.13
2022-12-24T17:08:43.657Z,4.49
2022-12-24T17:11:15.243Z,4.51
2022-12-24T17:13:46.823Z,4.03
2022-12-24T17:16:18.579Z,4.89
2022-12-24T17:18:50.346Z,6.13
2022-12-24T17:21:22.060Z,7.06
2022-12-24T17:23:53.712Z,7.65
2022-12-24T17:26:25.743Z,7.08
2022-12-24T17:28:57.454Z,7.19
2022-12-24T17:31:29.948Z,5.99
2022-12-24T17:34:01.644Z,6.05
2022-12-24T17:36:33.246Z,6.40
2022-12-24T17:39:04.815Z,7.20
2022-12-24T17:41:37.594Z,7.17
2022-12-24T17:44:13.253Z,7.24
2022-12-24T17:46:44.901Z,7.81
2022-12-24T17:49:16.515Z,8.58
2022-12-24T17:51:48.305Z,8.60
2022-12-24T17:54:19.926Z,8.88
2022-12-24T17:56:51.521Z,9.22
2022-12-24T17:59:23.220Z,9.38
2022-12-24T18:01:54.952Z,9.31
2022-12-24T18:04:26.682Z,9.84
2022-12-24T18:07:02.522Z,9.24
2022-12-24T18:09:34.665Z,8.80
2022-12-24T18:12:06.685Z,8.25
2022-12-24T18:14:38.313Z,7.68
2022-12-24T18:17:09.866Z,7.40
2022-12-24T18:19:41.460Z,8.06
2022-12-24T18:22:13.057Z,8.77
2022-12-24T18:24:44.633Z,8.54
2022-12-24T18:27:16.246Z,8.63
2022-12-24T18:29:47.869Z,9.05
2022-12-24T18:32:19.462Z,9.64
2022-12-24T18:34:51.687Z,10.75
2022-12-24T18:37:23.594Z,10.21
2022-12-24T18:39:55.289Z,10.81
2022-12-24T18:42:27.341Z,10.81
2022-12-24T18:44:58.915Z,11.96
2022-12-24T18:47:30.639Z,10.96
2022-12-24T18:50:02.221Z,11.81
2022-12-24T18:52:33.844Z,12.70
2022-12-24T18:55:05.811Z,14.09
2022-12-24T18:57:37.362Z,14.20
2022-12-24T19:00:09.479Z,14.42
2022-12-24T19:02:41.180Z,14.94
2022-12-24T19:05:12.867Z,13.33
2022-12-24T19:07:45.655Z,12.46
2022-12-24T19:10:17.282Z,11.57
2022-12-24T19:12:48.939Z,10.76
2022-12-24T19:15:20.563Z,9.90
2022-12-24T19:17:55.923Z,9.87
2022-12-24T19:20:27.514Z,8.13
2022-12-24T19:22:59.104Z,7.92
2022-12-24T19:25:30.729Z,6.79
2022-12-24T19:28:04.108Z,5.82
2022-12-24T19:30:37.516Z,6.17
2022-12-24T19:33:10.275Z,6.23
2022-12-24T19:35:41.913Z,5.95
2022-12-24T19:38:13.624Z,6.30
2022-12-24T19:40:45.193Z,6.07
2022-12-24T19:43:16.749Z,5.85
2022-12-24T19:45:48.329Z,6.44
2022-12-24T19:48:20.090Z,6.73
2022-12-24T19:50:51.658Z,6.24
2022-12-24T19:53:23.193Z,6.19
2022-12-24T19:55:54.861Z,6.52
2022-12-24T19:58:27.179Z,6.56
2022-12-24T20:01:15.168Z,6.60
2022-12-24T20:03:50.057Z,6.61
2022-12-24T20:06:24.893Z,6.79
2022-12-24T20:09:05.233Z,6.74
2022-12-24T20:11:37.192Z,7.39
2022-12-24T20:14:11.486Z,7.14
2022-12-24T20:16:43.227Z,7.05
2022-12-24T20:19:14.847Z,7.03
2022-12-24T20:21:46.416Z,7.46
2022-12-24T20:24:18.116Z,7.75
2022-12-24T20:26:49.751Z,7.53
2022-12-24T20:29:21.325Z,7.79
2022-12-24T20:31:52.915Z,8.64
2022-12-24T20:34:24.591Z,8.00
2022-12-24T20:36:57.013Z,7.92
2022-12-24T20:39:28.609Z,7.49
2022-12-24T20:42:00.199Z,7.59
2022-12-24T20:44:31.747Z,7.52
2022-12-24T20:47:03.477Z,7.86
2022-12-24T20:49:35.067Z,7.64
2022-12-24T20:52:06.773Z,7.32
2022-12-24T20:54:38.355Z,7.14
2022-12-24T20:57:11.803Z,8.08
2022-12-24T20:59:43.394Z,7.84
2022-12-24T21:02:15.205Z,7.83
2022-12-24T21:04:46.938Z,8.30
2022-12-24T21:07:18.574Z,8.91
2022-12-24T21:09:50.240Z,8.63
2022-12-24T21:12:21.860Z,8.65
2022-12-24T21:14:53.429Z,9.67
2022-12-24T21:17:25.156Z,10.06
2022-12-24T21:19:56.812Z,9.95
2022-12-24T21:22:28.460Z,10.16
2022-12-24T21:25:00.024Z,10.15
2022-12-24T21:27:31.771Z,10.57
2022-12-24T21:30:08.805Z,10.00
2022-12-24T21:32:40.609Z,10.06
2022-12-24T21:35:12.220Z,10.18
2022-12-24T21:37:43.827Z,10.28
2022-12-24T21:40:15.559Z,11.08
2022-12-24T21:42:47.130Z,11.68
2022-12-24T21:45:18.777Z,11.01
2022-12-24T21:47:50.333Z,10.95
2022-12-24T21:50:22.624Z,10.79
2022-12-24T21:52:56.190Z,11.10
2022-12-24T21:55:27.773Z,11.11
2022-12-24T21:57:59.355Z,11.15
2022-12-24T22:00:30.990Z,11.08
2022-12-24T22:03:02.740Z,10.81
2022-12-24T22:05:35.055Z,11.10
2022-12-24T22:08:06.696Z,10.57
2022-12-24T22:10:39.636Z,10.22
2022-12-24T22:13:11.323Z,9.97
2022-12-24T22:15:52.037Z,9.20
2022-12-24T22:18:25.942Z,8.99
2022-12-24T22:20:57.577Z,9.05
2022-12-24T22:23:29.175Z,9.26
2022-12-24T22:26:00.760Z,9.45
2022-12-24T22:28:32.339Z,10.10
2022-12-24T22:31:03.942Z,10.32
2022-12-24T22:33:35.560Z,10.78
2022-12-24T22:36:07.470Z,9.92
2022-12-24T22:38:42.849Z,9.28
2022-12-24T22:41:14.586Z,10.62
2022-12-24T22:43:46.226Z,11.15
2022-12-24T22:46:18.721Z,10.94
2022-12-24T22:48:50.450Z,10.81
2022-12-24T22:51:22.214Z,10.94
2022-12-24T22:53:53.796Z,11.53
2022-12-24T22:56:25.433Z,11.12
2022-12-24T22:58:57.312Z,11.80
2022-12-24T23:01:40.944Z,11.69
2022-12-24T23:04:14.189Z,11.91
2022-12-24T23:06:45.768Z,12.35
2022-12-24T23:09:18.789Z,12.51
2022-12-24T23:11:50.370Z,12.90
2022-12-24T23:14:22.308Z,12.92
2022-12-24T23:16:53.996Z,13.40
2022-12-24T23:19:25.624Z,13.90
2022-12-24T23:21:57.528Z,13.02
2022-12-24T23:24:29.841Z,12.43
2022-12-24T23:27:01.673Z,12.63
2022-12-24T23:29:33.592Z,13.04
2022-12-24T23:32:05.235Z,13.18
2022-12-24T23:34:36.851Z,12.99
2022-12-24T23:37:08.461Z,12.55
2022-12-24T23:39:40.054Z,11.89
2022-12-24T23:42:11.652Z,12.55
2022-12-24T23:44:43.242Z,11.72
2022-12-24T23:47:15.050Z,12.47
2022-12-24T23:49:46.660Z,12.48
2022-12-24T23:52:18.285Z,11.85
2022-12-24T23:54:49.890Z,11.94
2022-12-24T23:57:21.544Z,11.79
2022-12-24T23:59:53.176Z,12.22
